Time;durP1;ratioP1;P1;durP2;ratioP2;P2;SDS_P1;SDS_P2;PMS_P1;PMS_P2;Temp;Humidity;BMP_temperature;BMP_pressure;BME280_temperature;BME280_humidity;BME280_pressure;Samples;Min_cycle;Max_cycle;Signal;HPM_P1;HPM_P2
2021/03/02 00:01:36;;;;;;;8.80;6.20;;;4.90;99.50;;;;;;5111239;28;20652;-51
2021/03/02 00:04:04;;;;;;;9.32;6.82;;;5.00;99.40;;;;;;5111173;28;20239;-50
2021/03/02 00:06:30;;;;;;;10.63;7.32;;;5.00;99.30;;;;;;5100874;27;20206;-51
2021/03/02 00:08:56;;;;;;;9.20;6.93;;;4.90;99.10;;;;;;5114786;27;20309;-51
2021/03/02 00:11:23;;;;;;;9.15;6.65;;;5.00;99.90;;;;;;5114358;27;20183;-50
2021/03/02 00:13:48;;;;;;;8.82;6.78;;;4.70;99.90;;;;;;5114500;27;20180;-50
2021/03/02 00:16:19;;;;;;;10.83;6.50;;;4.70;99.90;;;;;;5132756;27;20672;-51
2021/03/02 00:18:48;;;;;;;8.45;7.00;;;4.80;99.90;;;;;;5114298;27;20740;-51
2021/03/02 00:21:19;;;;;;;8.77;6.22;;;4.80;99.90;;;;;;5114481;27;20238;-51
2021/03/02 00:23:53;;;;;;;9.63;6.70;;;4.70;99.90;;;;;;5133197;27;20586;-51
2021/03/02 00:26:20;;;;;;;9.50;6.95;;;4.90;99.90;;;;;;5114396;27;20298;-51
2021/03/02 00:28:50;;;;;;;9.90;7.05;;;4.90;99.90;;;;;;5114154;27;20211;-51
2021/03/02 00:31:17;;;;;;;10.38;7.32;;;4.80;99.80;;;;;;5114245;27;20671;-51
2021/03/02 00:33:45;;;;;;;9.75;6.82;;;5.00;99.90;;;;;;5113893;27;20512;-51
2021/03/02 00:36:11;;;;;;;10.73;7.45;;;4.60;99.70;;;;;;5109061;28;20203;-52
2021/03/02 00:38:37;;;;;;;10.07;7.53;;;4.50;99.70;;;;;;5104300;27;20270;-52
2021/03/02 00:41:02;;;;;;;7.20;5.83;;;4.60;99.80;;;;;;5114543;27;20412;-52
2021/03/02 00:43:29;;;;;;;9.30;6.17;;;4.60;99.90;;;;;;5114113;27;20277;-51
2021/03/02 00:45:54;;;;;;;8.88;6.70;;;4.80;99.90;;;;;;5113800;27;20195;-52
2021/03/02 00:48:20;;;;;;;13.00;6.83;;;4.60;99.90;;;;;;5113832;27;20705;-52
2021/03/02 00:50:46;;;;;;;9.07;6.97;;;4.70;99.90;;;;;;5113787;27;20282;-52
2021/03/02 00:53:11;;;;;;;9.10;6.53;;;4.70;99.90;;;;;;5113968;27;20481;-52
2021/03/02 00:55:37;;;;;;;11.73;6.73;;;4.40;99.90;;;;;;5114028;27;20183;-52
2021/03/02 00:58:03;;;;;;;11.27;6.70;;;4.50;99.90;;;;;;5132053;27;20176;-51
2021/03/02 01:00:28;;;;;;;8.20;6.23;;;4.40;99.90;;;;;;5132086;27;20284;-52
2021/03/02 01:02:54;;;;;;;8.23;6.33;;;4.50;99.90;;;;;;5113676;27;20198;-51
2021/03/02 01:05:20;;;;;;;9.40;6.30;;;4.50;99.90;;;;;;5104357;27;20639;-51
2021/03/02 01:07:45;;;;;;;7.80;6.43;;;4.60;99.90;;;;;;5113930;27;20211;-52
2021/03/02 01:10:12;;;;;;;10.80;6.50;;;4.30;99.90;;;;;;5113882;27;20455;-51
2021/03/02 01:12:38;;;;;;;8.50;6.28;;;4.20;99.90;;;;;;5113532;27;20340;-51
2021/03/02 01:15:05;;;;;;;7.60;6.80;;;4.00;99.90;;;;;;5113360;27;20290;-51
2021/03/02 01:17:31;;;;;;;10.63;6.72;;;3.70;99.90;;;;;;5130271;27;20255;-51
2021/03/02 01:19:58;;;;;;;10.70;7.30;;;4.30;99.90;;;;;;5113332;27;20191;-51
2021/03/02 01:22:23;;;;;;;6.45;5.75;;;4.30;99.90;;;;;;5113810;27;20436;-51
2021/03/02 01:24:49;;;;;;;11.47;7.10;;;4.40;99.90;;;;;;5113227;27;20182;-51
2021/03/02 01:27:15;;;;;;;7.40;6.10;;;4.30;99.90;;;;;;5105347;27;20226;-52
2021/03/02 01:29:40;;;;;;;10.37;6.80;;;4.20;99.90;;;;;;5131790;27;20575;-51
2021/03/02 01:32:06;;;;;;;8.80;6.20;;;4.50;99.90;;;;;;5112975;27;20425;-51
2021/03/02 01:34:32;;;;;;;10.43;6.90;;;4.30;99.90;;;;;;5113014;27;20725;-51
2021/03/02 01:36:59;;;;;;;6.82;5.97;;;4.20;99.90;;;;;;5112779;27;20538;-51
2021/03/02 01:39:24;;;;;;;8.55;6.55;;;4.00;99.90;;;;;;5112750;27;20214;-51
2021/03/02 01:41:51;;;;;;;11.27;7.20;;;4.20;99.90;;;;;;5113173;27;20263;-51
2021/03/02 01:44:17;;;;;;;8.70;6.78;;;4.10;99.90;;;;;;5113090;27;20245;-50
2021/03/02 01:46:44;;;;;;;8.20;5.70;;;3.90;99.90;;;;;;5131358;27;20238;-51
2021/03/02 01:49:10;;;;;;;8.98;6.53;;;3.80;99.90;;;;;;5113082;27;20292;-51
2021/03/02 01:51:36;;;;;;;8.17;6.43;;;4.00;99.90;;;;;;5113176;27;20721;-51
2021/03/02 01:54:01;;;;;;;8.60;6.60;;;4.00;99.90;;;;;;5113305;27;20190;-51
2021/03/02 01:56:27;;;;;;;8.80;6.80;;;3.90;99.90;;;;;;5113636;27;20480;-51
2021/03/02 01:58:53;;;;;;;8.23;6.50;;;3.90;99.90;;;;;;5112255;27;20444;-51
2021/03/02 02:01:20;;;;;;;10.10;6.93;;;3.60;99.90;;;;;;5112907;27;20440;-50
2021/03/02 02:03:49;;;;;;;9.45;6.88;;;3.60;99.90;;;;;;5112989;27;20227;-51
2021/03/02 02:06:43;;;;;;;8.15;6.32;;;3.80;99.90;;;;;;5113093;27;20683;-51
2021/03/02 02:09:24;;;;;;;8.32;6.18;;;3.90;99.90;;;;;;5092859;27;20226;-51
2021/03/02 02:12:14;;;;;;;8.63;6.80;;;3.70;99.90;;;;;;5112834;27;20174;-51
2021/03/02 02:14:50;;;;;;;8.85;6.72;;;3.90;99.90;;;;;;5112271;27;20179;-51
2021/03/02 02:17:22;;;;;;;7.97;6.45;;;3.70;99.90;;;;;;5112161;27;20293;-51
2021/03/02 02:20:01;;;;;;;12.88;6.90;;;3.80;99.90;;;;;;5111725;27;20227;-51
2021/03/02 02:22:33;;;;;;;8.35;6.97;;;3.90;99.90;;;;;;5112666;27;20187;-50
2021/03/02 02:25:18;;;;;;;8.90;6.70;;;4.00;99.90;;;;;;5108902;28;20177;-51
2021/03/02 02:27:47;;;;;;;9.05;7.53;;;3.50;99.90;;;;;;5126160;27;20210;-51
2021/03/02 02:30:13;;;;;;;9.35;7.05;;;3.60;99.90;;;;;;5112357;27;20195;-50
2021/03/02 02:32:42;;;;;;;10.02;6.75;;;3.50;99.90;;;;;;5130687;27;20192;-51
2021/03/02 02:35:08;;;;;;;9.55;6.95;;;3.70;99.90;;;;;;5130372;27;20194;-51
2021/03/02 02:37:34;;;;;;;7.70;5.85;;;3.70;99.90;;;;;;5111701;27;20199;-51
2021/03/02 02:40:01;;;;;;;8.55;6.55;;;3.70;99.90;;;;;;5110599;27;20228;-50
2021/03/02 02:42:29;;;;;;;10.27;7.22;;;3.60;99.90;;;;;;5112016;27;20199;-51
2021/03/02 02:44:56;;;;;;;7.65;6.85;;;3.80;99.90;;;;;;5112054;27;20210;-50
2021/03/02 02:47:22;;;;;;;10.40;6.47;;;3.70;99.90;;;;;;5130445;27;20210;-51
2021/03/02 02:49:49;;;;;;;9.00;6.63;;;3.70;99.90;;;;;;5111880;28;20256;-51
2021/03/02 02:52:18;;;;;;;10.07;7.13;;;3.80;99.90;;;;;;5130125;27;20647;-51
2021/03/02 02:54:46;;;;;;;7.68;6.00;;;3.70;99.90;;;;;;5112119;27;20183;-51
2021/03/02 02:57:18;;;;;;;7.65;5.68;;;3.60;99.90;;;;;;5112073;27;20202;-51
2021/03/02 02:59:46;;;;;;;8.10;6.68;;;3.50;99.90;;;;;;5112906;28;20183;-50
2021/03/02 03:02:22;;;;;;;10.48;7.40;;;3.30;99.90;;;;;;5112083;28;20687;-51
2021/03/02 03:05:00;;;;;;;10.98;6.95;;;3.40;99.90;;;;;;5111932;28;20278;-51
2021/03/02 03:07:31;;;;;;;7.50;6.30;;;3.30;99.90;;;;;;5130400;28;20282;-50
2021/03/02 03:10:00;;;;;;;10.35;6.38;;;3.50;99.90;;;;;;5107783;28;20283;-50
2021/03/02 03:12:29;;;;;;;9.73;6.38;;;3.30;99.90;;;;;;5102509;28;20708;-50
2021/03/02 03:15:01;;;;;;;7.32;5.75;;;3.30;99.90;;;;;;5129900;27;20188;-51
2021/03/02 03:17:35;;;;;;;10.35;7.32;;;3.50;99.90;;;;;;5129814;27;20230;-51
2021/03/02 03:20:04;;;;;;;9.15;7.00;;;3.30;99.90;;;;;;5109072;28;20277;-51
2021/03/02 03:22:31;;;;;;;9.88;6.32;;;3.40;99.90;;;;;;5104933;28;20186;-51
2021/03/02 03:24:58;;;;;;;11.00;8.18;;;3.60;99.90;;;;;;5109522;28;20371;-51
2021/03/02 03:27:26;;;;;;;9.55;6.05;;;3.20;99.90;;;;;;5111196;28;20194;-51
2021/03/02 03:29:52;;;;;;;9.40;6.35;;;3.30;99.90;;;;;;5111289;28;20221;-51
2021/03/02 03:32:18;;;;;;;10.50;7.20;;;3.20;99.90;;;;;;5111660;28;20672;-50
2021/03/02 03:34:44;;;;;;;8.20;6.50;;;3.20;99.90;;;;;;5111048;28;20436;-51
2021/03/02 03:37:10;;;;;;;9.45;6.45;;;3.20;99.90;;;;;;5111123;28;20206;-51
2021/03/02 03:39:36;;;;;;;8.90;6.40;;;3.50;99.90;;;;;;5111245;28;20175;-51
2021/03/02 03:42:02;;;;;;;10.03;6.10;;;3.50;99.90;;;;;;5112661;27;20458;-51
2021/03/02 03:44:28;;;;;;;8.43;7.10;;;3.40;99.90;;;;;;5115298;27;20187;-51
2021/03/02 03:46:53;;;;;;;12.63;8.03;;;3.20;99.90;;;;;;5133760;27;20212;-51
2021/03/02 03:49:19;;;;;;;9.93;7.13;;;3.30;99.90;;;;;;5115081;27;20297;-51
2021/03/02 03:51:45;;;;;;;11.23;7.47;;;3.00;99.90;;;;;;5133503;27;20685;-50
2021/03/02 03:54:14;;;;;;;11.13;6.95;;;3.10;99.90;;;;;;5114924;27;20824;-51
2021/03/02 03:56:42;;;;;;;9.65;6.93;;;3.00;99.90;;;;;;5115135;27;20203;-50
2021/03/02 03:59:11;;;;;;;8.57;7.43;;;3.00;99.90;;;;;;5114857;27;20604;-50
2021/03/02 04:01:38;;;;;;;10.32;7.65;;;3.00;99.90;;;;;;5114720;27;20266;-50
2021/03/02 04:04:04;;;;;;;9.95;7.38;;;3.10;99.90;;;;;;5114835;27;20278;-50
2021/03/02 04:06:33;;;;;;;9.45;7.32;;;3.20;99.90;;;;;;5114624;27;20257;-51
2021/03/02 04:08:59;;;;;;;8.73;6.45;;;2.90;99.90;;;;;;5132852;27;20242;-51
2021/03/02 04:11:25;;;;;;;8.15;6.18;;;3.10;99.90;;;;;;5114719;27;20731;-51
2021/03/02 04:13:50;;;;;;;11.37;7.10;;;3.00;99.90;;;;;;5114761;27;20292;-50
2021/03/02 04:16:16;;;;;;;9.10;7.10;;;3.00;99.90;;;;;;5114470;27;20468;-51
2021/03/02 04:18:42;;;;;;;10.33;6.87;;;2.90;99.90;;;;;;5114444;27;20182;-51
2021/03/02 04:21:07;;;;;;;9.90;6.77;;;3.10;99.90;;;;;;5114778;27;20227;-51
2021/03/02 04:23:33;;;;;;;11.43;7.80;;;3.00;99.90;;;;;;5132572;27;20185;-51
2021/03/02 04:25:58;;;;;;;14.73;6.90;;;3.00;99.90;;;;;;5114409;27;20199;-50
2021/03/02 04:28:24;;;;;;;12.90;8.20;;;2.70;99.90;;;;;;5114498;27;20179;-51
2021/03/02 04:30:53;;;;;;;10.10;6.87;;;2.70;99.90;;;;;;5114320;27;20210;-51
2021/03/02 04:33:18;;;;;;;11.73;7.25;;;2.80;99.90;;;;;;5132838;27;20183;-51
2021/03/02 04:35:44;;;;;;;8.10;6.60;;;2.90;99.90;;;;;;5114260;27;20480;-51
2021/03/02 04:38:10;;;;;;;9.57;6.60;;;2.90;99.90;;;;;;5113895;27;20731;-51
2021/03/02 04:40:35;;;;;;;11.20;7.03;;;2.70;99.90;;;;;;5114591;27;20187;-51
2021/03/02 04:43:01;;;;;;;10.57;7.87;;;3.00;99.90;;;;;;5114474;27;20810;-51
2021/03/02 04:45:27;;;;;;;9.10;7.00;;;2.90;99.90;;;;;;5115161;27;20667;-51
2021/03/02 04:47:52;;;;;;;10.60;7.60;;;3.00;99.90;;;;;;5114101;27;20599;-51
2021/03/02 04:50:18;;;;;;;13.43;8.10;;;3.00;99.90;;;;;;5114250;27;20199;-51
2021/03/02 04:52:44;;;;;;;11.23;7.90;;;2.90;99.90;;;;;;5114361;27;20178;-50
2021/03/02 04:55:10;;;;;;;11.85;8.07;;;2.50;99.90;;;;;;5104236;27;20664;-51
2021/03/02 04:57:37;;;;;;;12.05;7.70;;;2.70;99.90;;;;;;5113528;27;20675;-50
2021/03/02 05:00:05;;;;;;;12.15;8.35;;;2.60;99.90;;;;;;5113649;27;20715;-51
2021/03/02 05:02:30;;;;;;;10.77;7.40;;;2.70;99.90;;;;;;5114992;27;20659;-50
2021/03/02 05:04:56;;;;;;;10.53;8.00;;;3.20;99.90;;;;;;5114697;27;20193;-51
2021/03/02 05:07:21;;;;;;;11.03;7.40;;;2.70;99.90;;;;;;5113911;27;20211;-51
2021/03/02 05:09:47;;;;;;;12.60;8.00;;;2.10;99.90;;;;;;5113615;27;20699;-51
2021/03/02 05:12:12;;;;;;;13.83;8.10;;;2.80;99.90;;;;;;5113801;27;20673;-51
2021/03/02 05:14:40;;;;;;;11.60;8.13;;;2.80;99.90;;;;;;5113653;27;20221;-50
2021/03/02 05:17:05;;;;;;;11.30;7.78;;;2.60;99.90;;;;;;5112993;27;20674;-50
2021/03/02 05:19:31;;;;;;;14.63;9.40;;;2.60;99.90;;;;;;5113969;27;20266;-51
2021/03/02 05:21:57;;;;;;;11.20;8.30;;;2.70;99.90;;;;;;5113867;27;20194;-50
2021/03/02 05:24:23;;;;;;;10.23;7.22;;;2.70;99.90;;;;;;5111930;27;20441;-51
2021/03/02 05:26:48;;;;;;;14.30;8.77;;;2.70;99.90;;;;;;5112916;27;20202;-50
2021/03/02 05:29:14;;;;;;;11.67;8.00;;;2.80;99.90;;;;;;5108167;27;20718;-51
2021/03/02 05:31:40;;;;;;;13.30;8.77;;;2.50;99.90;;;;;;5113235;27;20179;-50
2021/03/02 05:34:05;;;;;;;14.10;9.63;;;2.60;99.90;;;;;;5131326;27;20641;-51
2021/03/02 05:36:31;;;;;;;10.50;7.73;;;2.50;99.90;;;;;;5112789;27;20195;-51
2021/03/02 05:38:56;;;;;;;18.23;8.27;;;2.60;99.90;;;;;;5112106;27;20201;-51
2021/03/02 05:41:22;;;;;;;15.00;8.50;;;2.50;99.90;;;;;;5113072;27;20179;-51
2021/03/02 05:43:48;;;;;;;10.70;8.10;;;2.50;99.90;;;;;;5112836;27;20183;-50
2021/03/02 05:46:14;;;;;;;12.20;9.40;;;2.40;99.90;;;;;;5107499;28;20502;-50
2021/03/02 05:48:41;;;;;;;11.80;8.23;;;2.40;99.90;;;;;;5097958;27;20445;-51
2021/03/02 05:51:11;;;;;;;10.93;8.10;;;2.40;99.90;;;;;;5105410;27;20439;-50
2021/03/02 05:53:39;;;;;;;10.95;8.35;;;2.80;99.90;;;;;;5104558;27;20305;-51
2021/03/02 05:56:07;;;;;;;11.75;8.15;;;2.80;99.90;;;;;;5106496;27;20214;-51
2021/03/02 05:58:35;;;;;;;11.93;8.23;;;2.60;99.90;;;;;;5101054;28;20224;-51
2021/03/02 06:01:02;;;;;;;10.50;8.20;;;3.00;99.90;;;;;;5111704;27;20179;-50
2021/03/02 06:03:28;;;;;;;13.77;9.45;;;2.80;99.90;;;;;;5108570;27;20542;-50
2021/03/02 06:05:57;;;;;;;11.13;8.33;;;3.10;99.90;;;;;;5112127;27;20214;-50
2021/03/02 06:08:22;;;;;;;13.35;8.20;;;3.10;99.90;;;;;;5110459;27;20194;-51
2021/03/02 06:10:48;;;;;;;12.27;8.37;;;3.40;99.90;;;;;;5118312;27;20217;-50
2021/03/02 06:13:23;;;;;;;13.30;9.50;;;3.30;99.90;;;;;;5108725;27;20670;-50
2021/03/02 06:15:54;;;;;;;14.20;8.70;;;3.00;99.90;;;;;;5105436;27;20555;-51
2021/03/02 06:18:21;;;;;;;11.80;9.40;;;3.30;99.90;;;;;;5111950;27;20587;-51
2021/03/02 06:20:48;;;;;;;16.13;9.48;;;3.20;99.90;;;;;;5099131;27;20194;-51
2021/03/02 06:23:22;;;;;;;11.27;9.07;;;3.40;99.90;;;;;;5106223;27;20183;-51
2021/03/02 06:25:48;;;;;;;13.15;9.30;;;3.40;99.90;;;;;;5102241;27;20205;-51
2021/03/02 06:28:30;;;;;;;12.03;8.20;;;3.50;99.90;;;;;;5109017;27;20647;-51
2021/03/02 06:30:56;;;;;;;12.27;9.27;;;3.20;99.90;;;;;;5122716;27;20468;-51
2021/03/02 06:33:21;;;;;;;13.50;8.90;;;3.60;99.90;;;;;;5126551;27;20548;-51
2021/03/02 06:35:47;;;;;;;12.63;9.57;;;3.40;99.90;;;;;;5103373;27;20408;-53
2021/03/02 06:38:33;;;;;;;14.73;9.47;;;3.60;99.90;;;;;;5102759;27;20179;-51
2021/03/02 06:41:00;;;;;;;13.52;9.48;;;3.60;99.90;;;;;;5102081;27;20202;-53
2021/03/02 06:43:37;;;;;;;12.68;9.95;;;3.70;99.90;;;;;;5105082;28;20453;-51
2021/03/02 06:46:08;;;;;;;12.73;9.35;;;3.70;99.90;;;;;;5103545;27;20210;-51
2021/03/02 06:48:49;;;;;;;15.73;9.90;;;3.40;99.90;;;;;;5102501;27;20194;-51
2021/03/02 06:51:30;;;;;;;17.92;10.15;;;3.60;99.90;;;;;;5103734;27;20183;-51
2021/03/02 06:54:05;;;;;;;13.90;10.48;;;3.40;99.90;;;;;;5119333;27;20171;-52
2021/03/02 06:56:31;;;;;;;15.73;10.73;;;3.40;99.90;;;;;;5104471;28;20198;-53
2021/03/02 06:59:10;;;;;;;16.40;9.97;;;3.30;99.90;;;;;;5102090;28;20187;-52
2021/03/02 07:01:40;;;;;;;18.77;10.50;;;3.50;99.90;;;;;;5099290;28;20971;-50
2021/03/02 07:04:11;;;;;;;14.32;10.25;;;3.60;99.90;;;;;;5104119;28;20183;-54
2021/03/02 07:06:39;;;;;;;14.13;10.35;;;3.60;99.90;;;;;;5102468;28;20234;-53
2021/03/02 07:09:06;;;;;;;18.73;10.13;;;3.80;99.90;;;;;;5101777;28;20233;-54
2021/03/02 07:11:37;;;;;;;12.80;10.45;;;3.70;99.90;;;;;;5105568;28;20528;-51
2021/03/02 07:14:05;;;;;;;14.05;11.10;;;3.50;99.90;;;;;;5107511;28;20708;-53
2021/03/02 07:16:35;;;;;;;12.98;10.88;;;3.60;99.90;;;;;;5106647;27;20222;-52
2021/03/02 07:19:03;;;;;;;13.07;10.15;;;4.00;99.90;;;;;;5111905;27;20224;-52
2021/03/02 07:21:37;;;;;;;20.02;11.88;;;3.80;99.90;;;;;;5123037;27;20516;-51
2021/03/02 07:24:06;;;;;;;12.43;10.50;;;3.70;99.90;;;;;;5105455;27;20186;-52
2021/03/02 07:26:33;;;;;;;15.32;11.02;;;4.00;99.90;;;;;;5100298;27;20207;-51
2021/03/02 07:29:03;;;;;;;15.55;10.50;;;4.20;99.90;;;;;;5105038;27;21573;-52
2021/03/02 07:31:35;;;;;;;15.02;10.55;;;3.60;99.90;;;;;;5104520;27;20198;-53
2021/03/02 07:34:01;;;;;;;15.20;11.93;;;4.10;99.90;;;;;;5102499;27;20180;-53
2021/03/02 07:36:34;;;;;;;15.77;11.90;;;4.40;99.90;;;;;;5101455;27;20200;-53
2021/03/02 07:39:16;;;;;;;13.50;10.10;;;4.40;99.90;;;;;;5113034;27;20617;-53
2021/03/02 07:41:43;;;;;;;12.40;10.43;;;4.50;99.90;;;;;;5104596;27;20764;-53
2021/03/02 07:44:09;;;;;;;15.23;10.20;;;4.60;99.90;;;;;;5107049;27;20654;-55
2021/03/02 07:46:40;;;;;;;14.73;11.13;;;4.90;99.90;;;;;;5106748;27;20194;-53
2021/03/02 07:49:38;;;;;;;19.42;11.20;;;4.90;99.90;;;;;;5099659;27;20232;-54
2021/03/02 07:52:08;;;;;;;17.48;11.88;;;5.20;99.90;;;;;;5049444;27;20554;-54
2021/03/02 07:54:34;;;;;;;14.70;10.75;;;5.10;99.90;;;;;;5106113;27;20240;-54
2021/03/02 07:57:15;;;;;;;15.85;11.10;;;5.10;99.90;;;;;;5103281;28;20212;-53
2021/03/02 07:59:42;;;;;;;13.90;10.80;;;5.20;99.90;;;;;;5095032;28;20197;-52
2021/03/02 08:02:18;;;;;;;14.85;11.25;;;5.50;99.90;;;;;;5132727;27;20939;-52
2021/03/02 08:04:51;;;;;;;15.07;11.57;;;5.30;99.90;;;;;;5109786;27;20189;-52
2021/03/02 08:07:18;;;;;;;17.58;10.40;;;5.40;99.90;;;;;;5110130;27;20568;-51
2021/03/02 08:09:43;;;;;;;16.10;12.30;;;5.50;99.90;;;;;;5105389;28;20285;-51
2021/03/02 08:12:25;;;;;;;14.70;11.90;;;5.70;99.90;;;;;;5126611;27;20735;-52
2021/03/02 08:14:51;;;;;;;13.88;11.48;;;6.00;99.90;;;;;;5127216;27;20188;-53
2021/03/02 08:17:23;;;;;;;18.77;11.57;;;5.90;99.90;;;;;;5112147;27;20195;-54
2021/03/02 08:20:10;;;;;;;15.73;12.20;;;6.00;99.90;;;;;;5108557;27;20181;-53
2021/03/02 08:22:41;;;;;;;15.48;12.07;;;6.10;99.90;;;;;;5112332;27;20182;-54
2021/03/02 08:25:10;;;;;;;18.85;12.13;;;6.10;99.90;;;;;;5129320;27;20202;-54
2021/03/02 08:27:42;;;;;;;18.98;13.15;;;6.40;99.90;;;;;;5102293;28;20215;-52
2021/03/02 08:30:10;;;;;;;19.70;12.40;;;6.80;99.90;;;;;;5111789;27;20267;-52
2021/03/02 08:32:37;;;;;;;18.63;12.60;;;6.60;99.90;;;;;;5112251;27;20532;-53
2021/03/02 08:35:09;;;;;;;19.30;13.35;;;6.60;99.90;;;;;;5124751;27;20175;-54
2021/03/02 08:37:50;;;;;;;15.45;12.80;;;7.00;99.90;;;;;;5130638;27;20270;-55
2021/03/02 08:40:42;;;;;;;17.52;12.45;;;7.20;99.90;;;;;;5108909;27;20189;-53
2021/03/02 08:43:22;;;;;;;21.10;14.40;;;7.00;99.90;;;;;;5112593;27;20218;-52
2021/03/02 08:45:56;;;;;;;18.42;12.90;;;7.20;99.80;;;;;;5115685;27;20187;-53
2021/03/02 08:48:25;;;;;;;19.05;13.23;;;7.50;99.80;;;;;;5130686;27;20178;-52
2021/03/02 08:50:56;;;;;;;15.48;12.57;;;7.80;99.40;;;;;;5111745;27;20970;-52
2021/03/02 08:53:31;;;;;;;17.35;13.13;;;8.20;98.30;;;;;;5110903;27;20538;-54
2021/03/02 08:55:58;;;;;;;15.32;12.98;;;8.70;97.30;;;;;;5108663;27;20705;-54
2021/03/02 08:58:41;;;;;;;17.50;12.10;;;8.80;96.40;;;;;;5111101;27;20247;-53
2021/03/02 09:01:08;;;;;;;17.88;11.18;;;9.50;95.80;;;;;;5105263;28;20236;-53
2021/03/02 09:03:35;;;;;;;14.13;12.63;;;10.40;93.90;;;;;;5113242;27;20268;-55
2021/03/02 09:06:12;;;;;;;18.10;13.13;;;10.90;91.40;;;;;;5110648;27;20256;-54
2021/03/02 09:08:58;;;;;;;18.02;12.20;;;11.40;91.00;;;;;;5109010;27;20181;-52
2021/03/02 09:11:29;;;;;;;24.35;12.70;;;11.70;88.50;;;;;;5110881;27;20186;-53
2021/03/02 09:13:58;;;;;;;15.77;11.70;;;11.40;87.80;;;;;;5108665;27;20191;-52
2021/03/02 09:16:31;;;;;;;16.33;12.73;;;11.30;88.70;;;;;;5106265;27;20353;-54
2021/03/02 09:19:17;;;;;;;14.02;10.93;;;11.60;88.40;;;;;;5108362;27;20567;-54
2021/03/02 09:21:46;;;;;;;17.50;11.98;;;11.50;87.50;;;;;;5112232;27;20181;-54
2021/03/02 09:24:17;;;;;;;10.93;9.68;;;11.30;88.20;;;;;;5099940;27;20264;-52
2021/03/02 09:27:04;;;;;;;14.05;10.75;;;12.00;87.20;;;;;;5109737;27;20205;-53
2021/03/02 09:29:42;;;;;;;13.82;10.57;;;12.10;85.70;;;;;;5106780;28;20211;-55
2021/03/02 09:32:27;;;;;;;20.50;11.75;;;12.40;84.80;;;;;;5109357;27;20198;-52
2021/03/02 09:35:08;;;;;;;16.13;13.02;;;12.70;83.70;;;;;;5108079;27;20192;-53
2021/03/02 09:37:46;;;;;;;13.25;10.30;;;13.20;82.90;;;;;;5102324;28;20695;-53
2021/03/02 09:40:21;;;;;;;13.63;10.68;;;13.80;79.40;;;;;;5111812;27;20255;-52
2021/03/02 09:42:57;;;;;;;15.40;10.43;;;14.60;77.10;;;;;;5109661;27;20178;-52
2021/03/02 09:45:25;;;;;;;13.40;11.02;;;15.10;74.90;;;;;;5112192;27;20197;-54
2021/03/02 09:48:09;;;;;;;13.82;10.55;;;14.90;73.50;;;;;;5111787;27;20209;-54
2021/03/02 09:50:43;;;;;;;14.23;11.13;;;15.20;72.50;;;;;;5112324;27;20293;-54
2021/03/02 09:53:16;;;;;;;12.43;11.13;;;14.60;72.60;;;;;;5124214;27;20179;-54
2021/03/02 09:55:48;;;;;;;12.75;10.48;;;14.60;74.10;;;;;;5108129;27;20662;-58
2021/03/02 09:58:23;;;;;;;12.93;10.48;;;14.20;74.50;;;;;;5110288;27;20214;-54
2021/03/02 10:00:57;;;;;;;17.60;11.10;;;14.50;73.90;;;;;;5112296;27;20178;-54
2021/03/02 10:03:38;;;;;;;14.95;11.10;;;14.70;73.10;;;;;;5108267;27;20174;-53
2021/03/02 10:06:10;;;;;;;17.13;10.52;;;14.60;73.70;;;;;;5112386;27;20730;-52
2021/03/02 10:08:47;;;;;;;13.73;10.73;;;14.00;74.80;;;;;;5111292;27;20196;-52
2021/03/02 10:11:20;;;;;;;12.15;10.20;;;14.80;74.80;;;;;;5112644;27;20217;-52
2021/03/02 10:13:46;;;;;;;12.57;10.68;;;15.70;71.80;;;;;;5109969;27;20310;-53
2021/03/02 10:16:22;;;;;;;17.27;11.97;;;16.00;68.70;;;;;;5106350;27;20242;-52
2021/03/02 10:18:56;;;;;;;12.70;10.73;;;15.80;68.80;;;;;;5100079;28;20474;-52
2021/03/02 10:21:42;;;;;;;13.40;10.95;;;15.90;68.60;;;;;;5106964;27;20191;-52
2021/03/02 10:24:09;;;;;;;12.75;10.25;;;15.60;67.80;;;;;;5104849;27;20281;-52
2021/03/02 10:26:38;;;;;;;13.45;10.45;;;15.60;68.50;;;;;;5111164;27;20635;-55
2021/03/02 10:29:08;;;;;;;14.63;11.50;;;15.50;68.90;;;;;;5098697;28;20187;-50
2021/03/02 10:31:38;;;;;;;12.13;10.57;;;15.40;68.00;;;;;;5096992;27;20564;-52
2021/03/02 10:34:12;;;;;;;13.27;11.20;;;15.40;69.00;;;;;;5105656;27;20187;-50
2021/03/02 10:36:42;;;;;;;12.73;10.60;;;15.20;70.20;;;;;;5100875;27;20217;-52
2021/03/02 10:39:20;;;;;;;14.18;10.40;;;14.80;70.60;;;;;;5110008;27;20203;-55
2021/03/02 10:41:52;;;;;;;12.32;10.18;;;15.40;70.70;;;;;;5110361;27;20194;-54
2021/03/02 10:44:21;;;;;;;16.95;12.05;;;15.50;68.60;;;;;;5108646;27;20179;-52
2021/03/02 10:46:47;;;;;;;13.45;11.60;;;16.30;67.80;;;;;;5110513;27;20278;-53
2021/03/02 10:49:13;;;;;;;12.07;10.88;;;16.00;67.90;;;;;;5110163;27;20222;-53
2021/03/02 10:51:45;;;;;;;18.73;11.40;;;16.30;67.30;;;;;;5110291;27;20182;-53
2021/03/02 10:54:17;;;;;;;12.52;10.45;;;15.90;66.30;;;;;;5091388;28;20221;-55
2021/03/02 10:56:48;;;;;;;11.93;10.52;;;16.00;67.00;;;;;;5104764;27;20204;-54
2021/03/02 10:59:16;;;;;;;13.45;11.00;;;16.10;66.10;;;;;;5127493;27;20609;-54
2021/03/02 11:01:45;;;;;;;14.00;11.52;;;16.60;67.30;;;;;;5111482;28;20215;-53
2021/03/02 11:04:24;;;;;;;13.68;10.02;;;16.30;68.80;;;;;;5105766;27;20744;-55
2021/03/02 11:06:53;;;;;;;13.82;10.65;;;16.00;69.80;;;;;;5110801;28;20242;-54
2021/03/02 11:09:18;;;;;;;12.27;10.80;;;16.30;67.60;;;;;;5102704;28;20510;-55
2021/03/02 11:11:44;;;;;;;14.27;10.80;;;16.90;65.10;;;;;;5128104;27;20325;-55
2021/03/02 11:14:10;;;;;;;13.83;10.73;;;17.50;64.00;;;;;;5101585;28;20620;-55
2021/03/02 11:16:40;;;;;;;12.20;10.60;;;17.90;61.90;;;;;;5108082;28;20469;-55
2021/03/02 11:19:06;;;;;;;13.02;11.55;;;18.50;59.80;;;;;;5096091;28;20274;-55
2021/03/02 11:21:32;;;;;;;17.57;11.67;;;18.50;58.70;;;;;;5100626;28;20265;-55
2021/03/02 11:24:01;;;;;;;15.03;11.37;;;18.20;58.90;;;;;;5106387;28;20643;-52
2021/03/02 11:26:30;;;;;;;13.20;11.02;;;18.00;60.30;;;;;;5109669;28;20229;-54
2021/03/02 11:28:58;;;;;;;15.00;10.63;;;17.70;59.00;;;;;;5105638;28;20656;-53
2021/03/02 11:31:24;;;;;;;12.73;10.85;;;18.40;58.60;;;;;;5090448;28;20248;-52
2021/03/02 11:33:56;;;;;;;16.20;12.85;;;18.60;57.80;;;;;;5108914;28;20600;-51
2021/03/02 11:36:27;;;;;;;12.73;11.30;;;18.40;58.60;;;;;;5111226;28;20679;-51
2021/03/02 11:38:56;;;;;;;13.23;11.07;;;17.30;58.40;;;;;;5109154;28;20191;-54
2021/03/02 11:41:26;;;;;;;13.10;11.27;;;17.50;59.60;;;;;;5108291;28;20186;-54
2021/03/02 11:44:00;;;;;;;13.07;11.40;;;17.80;59.00;;;;;;5105497;28;20182;-55
2021/03/02 11:46:29;;;;;;;14.85;12.85;;;17.70;59.10;;;;;;5104016;28;20223;-54
2021/03/02 11:49:03;;;;;;;15.35;12.15;;;17.80;59.40;;;;;;5108419;28;20175;-54
2021/03/02 11:51:34;;;;;;;12.82;10.90;;;18.00;59.80;;;;;;5127027;28;20285;-54
2021/03/02 11:54:09;;;;;;;14.88;11.82;;;17.70;59.40;;;;;;5111544;28;20263;-54
2021/03/02 11:56:35;;;;;;;17.05;12.43;;;17.60;60.20;;;;;;5110174;28;20207;-54
2021/03/02 11:59:01;;;;;;;15.57;12.67;;;17.70;60.10;;;;;;5110083;27;20595;-53
2021/03/02 12:01:30;;;;;;;16.73;12.57;;;18.10;60.50;;;;;;5107193;27;20791;-55
2021/03/02 12:04:03;;;;;;;20.05;15.55;;;18.00;60.10;;;;;;5107446;27;20205;-53
2021/03/02 12:06:34;;;;;;;16.40;12.05;;;17.70;60.20;;;;;;5113615;27;20207;-54
2021/03/02 12:09:03;;;;;;;22.88;13.32;;;18.00;59.70;;;;;;5111971;27;20179;-55
2021/03/02 12:11:29;;;;;;;24.67;20.15;;;17.70;59.80;;;;;;5114561;27;20734;-55
2021/03/02 12:14:01;;;;;;;17.13;15.40;;;17.90;59.80;;;;;;5112798;27;20281;-53
2021/03/02 12:16:27;;;;;;;13.23;11.82;;;17.30;59.40;;;;;;5112761;27;20248;-52
2021/03/02 12:18:55;;;;;;;19.43;12.30;;;17.30;59.80;;;;;;5109738;27;20263;-55
2021/03/02 12:21:23;;;;;;;16.42;12.45;;;17.60;59.10;;;;;;5113541;27;20216;-55
2021/03/02 12:23:52;;;;;;;15.57;11.52;;;17.70;59.00;;;;;;5114617;27;20175;-53
2021/03/02 12:26:23;;;;;;;14.88;12.13;;;17.60;58.20;;;;;;5133180;27;20208;-54
2021/03/02 12:28:57;;;;;;;15.65;11.38;;;17.60;59.50;;;;;;5130316;27;20526;-53
2021/03/02 12:31:26;;;;;;;21.55;13.45;;;17.20;58.60;;;;;;5113288;27;20190;-53
2021/03/02 12:33:52;;;;;;;11.73;10.07;;;17.40;58.60;;;;;;5111217;27;20183;-53
2021/03/02 12:36:19;;;;;;;15.50;11.82;;;17.50;58.20;;;;;;5112352;27;20207;-50
2021/03/02 12:38:49;;;;;;;16.15;11.93;;;17.60;57.50;;;;;;5111209;27;20181;-52
2021/03/02 12:41:23;;;;;;;14.65;10.60;;;17.40;57.80;;;;;;5111487;27;20193;-54
2021/03/02 12:43:54;;;;;;;16.92;11.45;;;17.40;58.50;;;;;;5113415;27;20269;-52
2021/03/02 12:46:25;;;;;;;16.20;11.18;;;17.20;58.70;;;;;;5113631;27;20214;-55
2021/03/02 12:48:58;;;;;;;16.63;11.90;;;17.30;58.60;;;;;;5112425;27;20265;-53
2021/03/02 12:51:26;;;;;;;13.85;11.23;;;17.30;58.30;;;;;;5107611;28;20271;-55
2021/03/02 12:53:54;;;;;;;17.52;11.25;;;17.40;56.70;;;;;;5109460;27;20178;-55